createdAt,value
2022-08-08T00:00:55.848Z,14.80
2022-08-08T00:02:30.842Z,14.70
2022-08-08T00:04:16.252Z,14.80
2022-08-08T00:06:28.249Z,14.70
2022-08-08T00:08:50.582Z,14.70
2022-08-08T00:10:35.540Z,14.70
2022-08-08T00:12:13.349Z,14.70
2022-08-08T00:14:17.549Z,14.70
2022-08-08T00:16:46.374Z,14.60
2022-08-08T00:19:06.984Z,14.60
2022-08-08T00:20:51.748Z,14.60
2022-08-08T00:22:54.597Z,14.60
2022-08-08T00:25:01.800Z,14.60
2022-08-08T00:26:41.760Z,14.50
2022-08-08T00:28:35.400Z,14.60
2022-08-08T00:30:15.750Z,14.60
2022-08-08T00:32:14.939Z,14.50
2022-08-08T00:34:46.098Z,14.50
2022-08-08T00:36:35.247Z,14.50
2022-08-08T00:38:31.488Z,14.50
2022-08-08T00:41:12.221Z,14.50
2022-08-08T00:43:20.402Z,14.50
2022-08-08T00:45:32.176Z,14.50
2022-08-08T00:48:05.417Z,14.50
2022-08-08T00:50:17.753Z,14.50
2022-08-08T00:52:20.248Z,14.50
2022-08-08T00:54:36.506Z,14.50
2022-08-08T00:56:42.129Z,14.50
2022-08-08T00:58:54.713Z,14.50
2022-08-08T01:00:37.895Z,14.50
2022-08-08T01:04:01.661Z,14.50
2022-08-08T01:04:43.882Z,14.50
2022-08-08T01:06:27.444Z,14.50
2022-08-08T01:08:37.557Z,14.50
2022-08-08T01:10:44.129Z,14.50
2022-08-08T01:13:43.283Z,14.50
2022-08-08T01:16:01.349Z,14.50
2022-08-08T01:18:25.390Z,14.50
2022-08-08T01:20:27.670Z,14.50
2022-08-08T01:22:10.225Z,14.50
2022-08-08T01:24:33.565Z,14.40
2022-08-08T01:26:49.655Z,14.40
2022-08-08T01:28:51.449Z,14.40
2022-08-08T01:30:35.959Z,14.40
2022-08-08T01:32:21.427Z,14.30
2022-08-08T01:34:50.469Z,14.40
2022-08-08T01:37:17.490Z,14.30
2022-08-08T01:39:27.898Z,14.30
2022-08-08T01:41:34.299Z,14.30
2022-08-08T01:43:44.895Z,14.20
2022-08-08T01:45:57.841Z,14.20
2022-08-08T01:48:23.692Z,14.30
2022-08-08T01:50:17.098Z,14.30
2022-08-08T01:53:56.995Z,14.30
2022-08-08T01:55:19.279Z,14.30
2022-08-08T01:57:26.398Z,14.30
2022-08-08T02:00:03.338Z,14.20
2022-08-08T02:01:59.522Z,14.30
2022-08-08T02:03:58.437Z,14.20
2022-08-08T02:06:32.516Z,14.20
2022-08-08T02:08:45.621Z,14.20
2022-08-08T02:10:54.554Z,14.30
2022-08-08T02:13:53.319Z,14.30
2022-08-08T02:15:38.676Z,14.30
2022-08-08T02:17:55.973Z,14.30
2022-08-08T02:20:07.897Z,14.30
2022-08-08T02:22:28.398Z,14.30
2022-08-08T02:24:50.788Z,14.30
2022-08-08T02:27:07.348Z,14.30
2022-08-08T02:29:27.081Z,14.20
2022-08-08T02:31:54.188Z,14.10
2022-08-08T02:34:08.040Z,14.10
2022-08-08T02:37:52.816Z,14.10
2022-08-08T02:39:42.246Z,14.00
2022-08-08T02:41:58.723Z,14.00
2022-08-08T02:44:42.314Z,13.90
2022-08-08T02:46:53.696Z,13.90
2022-08-08T02:49:51.233Z,13.90
2022-08-08T02:52:34.711Z,13.80
2022-08-08T02:54:49.975Z,13.80
2022-08-08T02:56:51.115Z,13.80
2022-08-08T02:59:26.027Z,13.80
2022-08-08T03:01:57.953Z,13.80
2022-08-08T03:05:04.493Z,13.80
2022-08-08T03:06:44.638Z,13.80
2022-08-08T03:09:01.376Z,13.90
2022-08-08T03:11:01.691Z,13.90
2022-08-08T03:15:53.596Z,13.90
2022-08-08T03:16:01.581Z,13.90
2022-08-08T03:18:06.765Z,13.90
2022-08-08T03:20:21.551Z,14.00
2022-08-08T03:21:58.587Z,13.90
2022-08-08T03:23:56.306Z,13.90
2022-08-08T03:25:36.193Z,14.00
2022-08-08T03:27:26.934Z,14.00
2022-08-08T03:29:14.995Z,14.00
2022-08-08T03:31:13.545Z,14.00
2022-08-08T03:33:07.888Z,14.10
2022-08-08T03:34:58.663Z,14.10
2022-08-08T03:36:31.456Z,14.20
2022-08-08T03:38:56.269Z,14.30
2022-08-08T03:40:02.097Z,14.30
2022-08-08T03:42:27.355Z,14.40
2022-08-08T03:43:31.553Z,14.30
2022-08-08T03:46:04.776Z,14.30
2022-08-08T03:47:25.757Z,14.40
2022-08-08T03:49:38.248Z,14.40
2022-08-08T03:51:19.335Z,14.40
2022-08-08T03:53:14.597Z,14.50
2022-08-08T03:55:10.229Z,14.40
2022-08-08T03:56:46.354Z,14.50
2022-08-08T03:58:34.216Z,14.50
2022-08-08T04:00:18.092Z,14.50
2022-08-08T04:02:22.927Z,14.50
2022-08-08T04:03:58.701Z,14.50
2022-08-08T04:05:36.501Z,14.50
2022-08-08T04:07:12.790Z,14.50
2022-08-08T04:08:48.792Z,14.50
2022-08-08T04:10:21.575Z,14.50
2022-08-08T04:12:00.379Z,14.50
2022-08-08T04:14:04.214Z,14.50
2022-08-08T04:15:30.366Z,14.60
2022-08-08T04:17:22.270Z,14.70
2022-08-08T04:18:55.116Z,14.70
2022-08-08T04:20:28.307Z,14.90
2022-08-08T04:22:01.004Z,15.20
2022-08-08T04:24:05.368Z,15.40
2022-08-08T04:25:29.944Z,15.70
2022-08-08T04:27:07.584Z,16.10
2022-08-08T04:28:43.135Z,16.30
2022-08-08T04:30:18.070Z,16.50
2022-08-08T04:32:00.233Z,16.80
2022-08-08T04:33:41.481Z,17.10
2022-08-08T04:35:14.478Z,17.60
2022-08-08T04:36:46.680Z,18.10
2022-08-08T04:38:21.976Z,18.50
2022-08-08T04:40:06.998Z,18.90
2022-08-08T04:41:40.733Z,19.10
2022-08-08T04:43:14.359Z,19.40
2022-08-08T04:44:47.539Z,19.50
2022-08-08T04:46:20.072Z,19.70
2022-08-08T04:47:55.270Z,19.70
2022-08-08T04:49:29.003Z,19.50
2022-08-08T04:51:28.053Z,19.50
2022-08-08T04:53:14.261Z,19.80
2022-08-08T04:55:06.564Z,19.80
2022-08-08T04:56:39.099Z,19.90
2022-08-08T04:58:15.144Z,20.00
2022-08-08T04:59:50.144Z,20.20
2022-08-08T05:01:22.512Z,20.30
2022-08-08T05:02:55.357Z,20.50
2022-08-08T05:04:27.790Z,20.70
2022-08-08T05:06:01.387Z,20.90
2022-08-08T05:07:46.786Z,21.20
2022-08-08T05:09:19.762Z,21.40
2022-08-08T05:10:53.260Z,21.60
2022-08-08T05:12:29.051Z,21.90
2022-08-08T05:14:02.295Z,21.90
2022-08-08T05:16:50.860Z,22.10
2022-08-08T05:17:27.723Z,22.00
2022-08-08T05:20:10.604Z,22.40
2022-08-08T05:21:14.377Z,22.50
2022-08-08T05:22:48.198Z,22.50
2022-08-08T05:24:22.448Z,22.60
2022-08-08T05:26:00.432Z,22.50
2022-08-08T05:27:33.554Z,22.80
2022-08-08T05:29:14.184Z,22.50
2022-08-08T05:30:47.892Z,22.20
2022-08-08T05:32:27.416Z,22.00
2022-08-08T05:34:06.877Z,21.70
2022-08-08T05:35:47.091Z,21.30
2022-08-08T05:37:52.024Z,20.80
2022-08-08T05:39:25.274Z,20.40
2022-08-08T05:41:04.910Z,19.90
2022-08-08T05:42:43.914Z,19.80
2022-08-08T05:44:29.318Z,19.70
2022-08-08T05:46:08.041Z,19.70
2022-08-08T05:48:00.491Z,19.50
2022-08-08T05:49:38.120Z,19.80
2022-08-08T05:51:14.772Z,19.90
2022-08-08T05:52:49.258Z,20.20
2022-08-08T05:54:27.312Z,20.40
2022-08-08T05:56:17.435Z,20.50
2022-08-08T05:58:05.362Z,20.80
2022-08-08T05:59:59.304Z,20.60
2022-08-08T06:01:51.130Z,20.90
2022-08-08T06:03:31.383Z,21.20
2022-08-08T06:05:34.288Z,21.30
2022-08-08T06:07:03.992Z,21.30
2022-08-08T06:08:53.408Z,21.60
2022-08-08T06:10:34.905Z,21.70
2022-08-08T06:12:11.227Z,21.60
2022-08-08T06:13:50.876Z,21.80
2022-08-08T06:15:23.053Z,21.90
2022-08-08T06:17:19.310Z,21.60
2022-08-08T06:18:55.267Z,21.30
2022-08-08T06:20:29.376Z,21.60
2022-08-08T06:22:32.241Z,21.60
2022-08-08T06:24:02.560Z,21.90
2022-08-08T06:26:39.030Z,22.10
2022-08-08T06:27:48.086Z,22.20
2022-08-08T06:30:00.923Z,22.20
2022-08-08T06:31:52.644Z,22.40
2022-08-08T06:34:25.760Z,22.40
2022-08-08T06:36:07.313Z,22.50
2022-08-08T06:38:14.035Z,22.70
2022-08-08T06:39:56.545Z,22.90
2022-08-08T06:42:02.539Z,22.50
2022-08-08T06:43:37.711Z,22.10
2022-08-08T06:45:10.247Z,21.80
2022-08-08T06:46:45.962Z,22.10
2022-08-08T06:48:22.308Z,22.50
2022-08-08T06:49:59.252Z,22.60
2022-08-08T06:51:48.874Z,22.90
2022-08-08T06:53:39.618Z,23.40
2022-08-08T06:55:12.481Z,23.70
2022-08-08T06:56:52.861Z,23.50
2022-08-08T06:58:30.702Z,23.50
2022-08-08T07:00:10.701Z,23.40
2022-08-08T07:02:26.769Z,22.80
2022-08-08T07:04:40.005Z,22.20
2022-08-08T07:06:05.582Z,21.70
2022-08-08T07:08:08.787Z,21.10
2022-08-08T07:10:08.193Z,21.20
2022-08-08T07:11:46.063Z,21.20
2022-08-08T07:13:37.591Z,20.90
2022-08-08T07:15:32.614Z,20.80
2022-08-08T07:17:18.976Z,20.70
2022-08-08T07:19:25.384Z,20.80
2022-08-08T07:21:19.251Z,20.80
2022-08-08T07:23:10.076Z,20.80
2022-08-08T07:25:04.071Z,20.80
2022-08-08T07:26:44.575Z,21.00
2022-08-08T07:28:24.112Z,21.20
2022-08-08T07:30:13.707Z,21.60
2022-08-08T07:31:48.239Z,22.00
2022-08-08T07:33:23.777Z,22.20
2022-08-08T07:35:00.705Z,22.40
2022-08-08T07:36:34.313Z,22.60
2022-08-08T07:38:18.362Z,22.70
2022-08-08T07:39:59.743Z,22.70
2022-08-08T07:42:04.334Z,22.60
2022-08-08T07:43:36.828Z,22.40
2022-08-08T07:45:10.916Z,22.40
2022-08-08T07:46:46.312Z,22.30
2022-08-08T07:48:19.537Z,22.30
2022-08-08T07:49:51.999Z,22.70
2022-08-08T07:51:44.315Z,22.80
2022-08-08T07:54:01.618Z,22.90
2022-08-08T07:55:36.376Z,22.70
2022-08-08T07:57:36.252Z,22.80
2022-08-08T07:59:15.820Z,23.00
2022-08-08T08:01:01.859Z,23.10
2022-08-08T08:02:56.210Z,23.10
2022-08-08T08:04:40.047Z,22.60
2022-08-08T08:06:14.855Z,22.70
2022-08-08T08:07:56.631Z,22.90
2022-08-08T08:09:39.708Z,23.00
2022-08-08T08:11:20.982Z,22.80
2022-08-08T08:13:25.399Z,22.70
2022-08-08T08:15:21.672Z,22.20
2022-08-08T08:16:56.372Z,21.80
2022-08-08T08:19:01.251Z,21.60
2022-08-08T08:20:36.261Z,21.30
2022-08-08T08:22:08.448Z,21.20
2022-08-08T08:23:44.859Z,20.90
2022-08-08T08:25:42.841Z,20.90
2022-08-08T08:27:27.444Z,20.90
2022-08-08T08:29:02.803Z,21.00
2022-08-08T08:30:39.516Z,21.20
2022-08-08T08:32:11.874Z,21.40
2022-08-08T08:33:50.512Z,21.50
2022-08-08T08:35:29.683Z,21.60
2022-08-08T08:37:16.492Z,21.80
2022-08-08T08:38:52.917Z,21.80
2022-08-08T08:40:26.267Z,21.90
2022-08-08T08:42:00.778Z,22.00
2022-08-08T08:43:35.993Z,22.10
2022-08-08T08:45:22.524Z,22.30
2022-08-08T08:46:58.768Z,22.40
2022-08-08T08:48:32.275Z,22.30
2022-08-08T08:50:04.763Z,22.40
2022-08-08T08:51:51.222Z,22.40
2022-08-08T08:53:27.807Z,22.40
2022-08-08T08:55:20.537Z,22.40
2022-08-08T08:56:56.166Z,22.30
2022-08-08T08:58:43.362Z,22.20
2022-08-08T09:00:22.913Z,22.50
2022-08-08T09:01:59.598Z,22.20
2022-08-08T09:03:46.613Z,22.20
2022-08-08T09:05:48.891Z,22.10
2022-08-08T09:07:23.878Z,22.00
2022-08-08T09:09:39.571Z,21.90
2022-08-08T09:11:20.484Z,22.00
2022-08-08T09:12:55.688Z,22.20
2022-08-08T09:14:29.539Z,22.40
2022-08-08T09:16:04.190Z,22.70
2022-08-08T09:17:52.224Z,22.80
2022-08-08T09:21:59.845Z,23.00
2022-08-08T09:22:00.133Z,23.00
2022-08-08T09:23:25.534Z,23.00
2022-08-08T09:24:58.795Z,22.70
2022-08-08T09:26:54.985Z,22.70
2022-08-08T09:28:37.513Z,22.50
2022-08-08T09:30:17.784Z,22.40
2022-08-08T09:32:05.896Z,22.40
2022-08-08T09:34:14.711Z,22.50
2022-08-08T09:35:49.899Z,22.40
2022-08-08T09:37:58.714Z,22.60
2022-08-08T09:39:32.802Z,22.80
2022-08-08T09:41:06.717Z,22.70
2022-08-08T09:42:44.023Z,22.70
2022-08-08T09:44:29.524Z,22.60
2022-08-08T09:46:11.158Z,22.80
2022-08-08T09:48:04.297Z,23.10
2022-08-08T09:49:49.989Z,23.30
2022-08-08T09:51:41.681Z,23.20
2022-08-08T09:53:59.166Z,23.30
2022-08-08T09:56:04.620Z,23.80
2022-08-08T09:57:46.232Z,23.90
2022-08-08T09:59:50.102Z,23.80
2022-08-08T10:01:59.878Z,23.50
2022-08-08T10:03:19.935Z,23.30
2022-08-08T10:04:53.626Z,23.40
2022-08-08T10:06:26.874Z,23.70
2022-08-08T10:08:02.909Z,23.90
2022-08-08T10:09:35.910Z,24.00
2022-08-08T10:12:26.665Z,24.40
2022-08-08T10:13:29.868Z,24.20
2022-08-08T10:15:17.280Z,24.30
2022-08-08T10:16:55.964Z,24.20
2022-08-08T10:18:36.588Z,24.50
2022-08-08T10:20:10.396Z,24.40
2022-08-08T10:21:54.996Z,24.20
2022-08-08T10:23:58.315Z,24.10
2022-08-08T10:25:36.289Z,23.80
2022-08-08T10:27:34.397Z,23.90
2022-08-08T10:29:11.314Z,23.90
2022-08-08T10:31:01.983Z,23.90
2022-08-08T10:32:38.393Z,23.90
2022-08-08T10:34:19.843Z,24.10
2022-08-08T10:36:09.689Z,24.00
2022-08-08T10:38:08.282Z,23.90
2022-08-08T10:39:54.793Z,23.90
2022-08-08T10:41:35.644Z,23.90
2022-08-08T10:43:09.964Z,24.00
2022-08-08T10:44:43.134Z,24.10
2022-08-08T10:46:30.334Z,24.30
2022-08-08T10:48:03.216Z,24.40
2022-08-08T10:50:01.152Z,24.40
2022-08-08T10:51:47.105Z,24.40
2022-08-08T10:53:56.175Z,24.50
2022-08-08T10:55:39.866Z,24.70
2022-08-08T10:57:17.523Z,24.60
2022-08-08T10:59:14.565Z,24.80
2022-08-08T11:00:53.578Z,24.60
2022-08-08T11:02:35.275Z,24.60
2022-08-08T11:04:10.804Z,24.90
2022-08-08T11:05:51.786Z,24.90
2022-08-08T11:07:39.213Z,24.80
2022-08-08T11:09:32.395Z,25.20
2022-08-08T11:12:00.805Z,24.60
2022-08-08T11:13:28.164Z,24.20
2022-08-08T11:15:00.584Z,23.70
2022-08-08T11:16:36.003Z,23.50
2022-08-08T11:18:09.031Z,23.30
2022-08-08T11:19:46.566Z,23.30
2022-08-08T11:21:35.204Z,23.50
2022-08-08T11:23:11.604Z,23.70
2022-08-08T11:24:47.629Z,23.90
2022-08-08T11:26:27.412Z,24.20
2022-08-08T11:28:04.229Z,24.50
2022-08-08T11:29:51.028Z,24.60
2022-08-08T11:31:48.441Z,24.90
2022-08-08T11:33:51.555Z,24.70
2022-08-08T11:35:24.921Z,24.50
2022-08-08T11:37:15.198Z,24.30
2022-08-08T11:38:54.845Z,24.60
2022-08-08T11:40:31.547Z,24.70
2022-08-08T11:42:09.198Z,24.60
2022-08-08T11:43:44.336Z,24.70
2022-08-08T11:45:23.199Z,24.90
2022-08-08T11:46:57.896Z,24.80
2022-08-08T11:48:32.960Z,24.50
2022-08-08T11:50:15.814Z,24.20
2022-08-08T11:51:56.434Z,24.30
2022-08-08T11:53:30.315Z,24.40
2022-08-08T11:55:26.740Z,24.40
2022-08-08T11:57:27.745Z,24.50
2022-08-08T12:00:01.603Z,24.50
2022-08-08T12:01:33.116Z,24.50
2022-08-08T12:03:30.563Z,24.30
2022-08-08T12:05:04.675Z,24.30
2022-08-08T12:06:39.194Z,24.30
2022-08-08T12:08:14.612Z,24.30
2022-08-08T12:09:59.573Z,24.00
2022-08-08T12:11:42.818Z,24.20
2022-08-08T12:13:33.575Z,24.30
2022-08-08T12:15:28.872Z,24.50
2022-08-08T12:17:01.275Z,24.80
2022-08-08T12:18:55.127Z,25.00
2022-08-08T12:20:41.655Z,25.60
2022-08-08T12:22:20.845Z,26.10
2022-08-08T12:24:08.659Z,25.80
2022-08-08T12:25:44.765Z,25.50
2022-08-08T12:27:26.928Z,25.50
2022-08-08T12:29:40.068Z,25.70
2022-08-08T12:31:13.288Z,25.60
2022-08-08T12:32:49.290Z,25.90
2022-08-08T12:34:53.830Z,25.70
2022-08-08T12:36:46.484Z,25.60
2022-08-08T12:38:30.233Z,25.80
2022-08-08T12:40:22.543Z,25.60
2022-08-08T12:42:04.870Z,25.70
2022-08-08T12:43:46.336Z,25.80
2022-08-08T12:45:59.711Z,25.80
2022-08-08T12:47:58.760Z,25.30
2022-08-08T12:49:43.392Z,25.10
2022-08-08T12:51:21.825Z,24.90
2022-08-08T12:52:55.768Z,24.80
2022-08-08T12:54:40.735Z,24.80
2022-08-08T12:56:19.546Z,24.60
2022-08-08T12:58:09.024Z,24.70
2022-08-08T13:00:05.093Z,24.70
2022-08-08T13:01:51.543Z,24.50
2022-08-08T13:03:33.613Z,24.70
2022-08-08T13:05:26.379Z,24.80
2022-08-08T13:07:16.581Z,24.60
2022-08-08T13:08:53.283Z,24.50
2022-08-08T13:10:33.612Z,24.50
2022-08-08T13:12:46.014Z,24.30
2022-08-08T13:14:19.297Z,24.00
2022-08-08T13:15:54.717Z,23.90
2022-08-08T13:18:09.802Z,24.00
2022-08-08T13:19:24.975Z,24.00
2022-08-08T13:21:17.399Z,24.10
2022-08-08T13:22:51.572Z,24.10
2022-08-08T13:24:41.019Z,24.20
2022-08-08T13:26:18.643Z,24.00
2022-08-08T13:27:56.515Z,24.00
2022-08-08T13:29:40.580Z,24.00
2022-08-08T13:31:16.357Z,24.00
2022-08-08T13:32:57.135Z,23.90
2022-08-08T13:34:33.287Z,23.80
2022-08-08T13:36:10.788Z,23.60
2022-08-08T13:38:05.626Z,23.70
2022-08-08T13:39:36.630Z,23.70
2022-08-08T13:41:16.810Z,23.60
2022-08-08T13:42:49.506Z,23.60
2022-08-08T13:44:31.309Z,23.50
2022-08-08T13:46:26.686Z,23.40
2022-08-08T13:48:04.170Z,23.40
2022-08-08T13:50:36.534Z,23.30
2022-08-08T13:51:37.505Z,23.30
2022-08-08T13:53:31.822Z,23.20
2022-08-08T13:55:09.114Z,23.20
2022-08-08T13:57:00.103Z,23.20
2022-08-08T13:58:34.551Z,23.30
2022-08-08T14:00:12.095Z,23.30
2022-08-08T14:01:57.778Z,23.40
2022-08-08T14:03:52.561Z,23.60
2022-08-08T14:05:34.657Z,23.70
2022-08-08T14:07:08.987Z,23.70
2022-08-08T14:08:50.100Z,23.80
2022-08-08T14:10:32.704Z,23.80
2022-08-08T14:12:09.687Z,23.80
2022-08-08T14:13:59.548Z,24.00
2022-08-08T14:15:39.548Z,24.10
2022-08-08T14:17:22.414Z,23.90
2022-08-08T14:19:17.764Z,23.90
2022-08-08T14:21:12.722Z,23.90
2022-08-08T14:22:50.860Z,23.80
2022-08-08T14:24:34.014Z,23.70
2022-08-08T14:26:10.895Z,23.70
2022-08-08T14:27:43.861Z,23.70
2022-08-08T14:29:34.613Z,23.50
2022-08-08T14:31:23.317Z,23.30
2022-08-08T14:33:11.136Z,23.30
2022-08-08T14:34:53.160Z,23.10
2022-08-08T14:36:40.550Z,23.10
2022-08-08T14:38:34.118Z,23.10
2022-08-08T14:40:07.098Z,23.00
2022-08-08T14:41:53.080Z,23.10
2022-08-08T14:44:02.566Z,23.10
2022-08-08T14:45:26.785Z,23.10
2022-08-08T14:47:17.062Z,23.10
2022-08-08T14:48:59.278Z,23.10
2022-08-08T14:50:38.410Z,23.20
2022-08-08T14:52:12.055Z,23.30
2022-08-08T14:53:55.022Z,23.30
2022-08-08T14:55:41.297Z,23.40
2022-08-08T14:57:16.226Z,23.50
2022-08-08T14:58:48.812Z,23.60
2022-08-08T15:00:23.564Z,23.60
2022-08-08T15:01:57.391Z,23.60
2022-08-08T15:03:35.240Z,23.60
2022-08-08T15:05:11.849Z,23.60
2022-08-08T15:06:45.492Z,23.50
2022-08-08T15:08:22.357Z,23.60
2022-08-08T15:10:09.931Z,23.50
2022-08-08T15:11:46.579Z,23.50
2022-08-08T15:13:25.864Z,23.40
2022-08-08T15:15:09.928Z,23.30
2022-08-08T15:16:44.394Z,23.30
2022-08-08T15:18:19.727Z,23.30
2022-08-08T15:19:52.632Z,23.40
2022-08-08T15:21:27.724Z,23.40
2022-08-08T15:23:03.215Z,23.40
2022-08-08T15:24:35.434Z,23.50
2022-08-08T15:26:12.568Z,23.40
2022-08-08T15:28:05.146Z,23.40
2022-08-08T15:29:38.224Z,23.40
2022-08-08T15:31:10.387Z,23.40
2022-08-08T15:32:58.624Z,23.40
2022-08-08T15:34:32.325Z,23.40
2022-08-08T15:36:05.019Z,23.40
2022-08-08T15:37:39.372Z,23.50
2022-08-08T15:39:11.953Z,23.50
2022-08-08T15:40:44.703Z,23.50
2022-08-08T15:42:41.392Z,23.40
2022-08-08T15:44:14.066Z,23.30
2022-08-08T15:45:48.896Z,23.30
2022-08-08T15:47:22.521Z,23.30
2022-08-08T15:48:54.897Z,23.30
2022-08-08T15:50:47.196Z,23.30
2022-08-08T15:52:24.971Z,23.50
2022-08-08T15:53:58.073Z,23.70
2022-08-08T15:55:30.388Z,23.80
2022-08-08T15:57:02.543Z,23.80
2022-08-08T15:58:37.459Z,23.90
2022-08-08T16:00:27.972Z,23.90
2022-08-08T16:02:01.123Z,23.90
2022-08-08T16:03:33.475Z,23.90
2022-08-08T16:05:13.570Z,23.90
2022-08-08T16:06:49.392Z,23.80
2022-08-08T16:08:21.939Z,23.80
2022-08-08T16:13:03.455Z,23.70
2022-08-08T16:13:14.030Z,23.70
2022-08-08T16:13:46.460Z,23.70
2022-08-08T16:15:19.152Z,23.80
2022-08-08T16:16:55.147Z,23.70
2022-08-08T16:18:28.227Z,23.60
2022-08-08T16:20:01.174Z,23.60
2022-08-08T16:21:35.580Z,23.50
2022-08-08T16:23:11.417Z,23.40
2022-08-08T16:24:43.749Z,23.40
2022-08-08T16:26:19.274Z,23.30
2022-08-08T16:27:57.012Z,23.20
2022-08-08T16:29:37.783Z,23.20
2022-08-08T16:31:23.786Z,23.00
2022-08-08T16:32:58.905Z,23.00
2022-08-08T16:34:33.668Z,22.90
2022-08-08T16:36:08.703Z,22.90
2022-08-08T16:37:42.954Z,22.80
2022-08-08T16:39:59.478Z,22.80
2022-08-08T16:41:20.621Z,22.80
2022-08-08T16:42:54.908Z,22.80
2022-08-08T16:44:33.980Z,22.70
2022-08-08T16:46:42.950Z,22.70
2022-08-08T16:47:59.179Z,22.70
2022-08-08T16:49:38.339Z,22.70
2022-08-08T16:51:10.764Z,22.70
2022-08-08T16:55:00.531Z,22.70
2022-08-08T16:55:18.385Z,22.70
2022-08-08T16:56:34.492Z,22.70
2022-08-08T16:58:16.002Z,22.60
2022-08-08T16:59:52.401Z,22.60
2022-08-08T17:01:25.133Z,22.60
2022-08-08T17:03:03.215Z,22.50
2022-08-08T17:04:35.532Z,22.50
2022-08-08T17:06:37.448Z,22.50
2022-08-08T17:08:03.280Z,22.60
2022-08-08T17:09:45.030Z,22.60
2022-08-08T17:11:17.964Z,22.60
2022-08-08T17:12:52.953Z,22.60
2022-08-08T17:14:27.285Z,22.60
2022-08-08T17:16:05.470Z,22.60
2022-08-08T17:18:03.538Z,22.70
2022-08-08T17:19:37.466Z,22.70
2022-08-08T17:21:17.293Z,22.70
2022-08-08T17:23:16.257Z,22.70
2022-08-08T17:24:42.397Z,22.70
2022-08-08T17:26:14.544Z,22.70
2022-08-08T17:28:01.271Z,22.70
2022-08-08T17:29:36.431Z,22.70
2022-08-08T17:31:45.194Z,22.60
2022-08-08T17:34:37.750Z,22.60
2022-08-08T17:35:53.508Z,22.50
2022-08-08T17:37:00.372Z,22.50
2022-08-08T17:38:35.443Z,22.40
2022-08-08T17:40:13.052Z,22.40
2022-08-08T17:41:48.576Z,22.30
2022-08-08T17:43:30.395Z,22.20
2022-08-08T17:45:24.327Z,22.20
2022-08-08T17:46:56.927Z,22.10
2022-08-08T17:48:31.733Z,22.00
2022-08-08T17:50:05.096Z,22.00
2022-08-08T17:51:38.634Z,21.90
2022-08-08T17:53:15.782Z,21.80
2022-08-08T17:54:52.029Z,21.70
2022-08-08T17:56:28.095Z,21.60
2022-08-08T17:58:03.203Z,21.50
2022-08-08T17:59:36.514Z,21.40
2022-08-08T18:01:29.990Z,21.30
2022-08-08T18:03:13.720Z,21.30
2022-08-08T18:04:49.486Z,21.20
2022-08-08T18:06:30.757Z,21.10
2022-08-08T18:08:04.543Z,21.10
2022-08-08T18:09:37.955Z,21.00
2022-08-08T18:11:17.108Z,20.90
2022-08-08T18:12:49.603Z,20.90
2022-08-08T18:14:24.076Z,20.80
2022-08-08T18:16:04.181Z,20.70
2022-08-08T18:18:27.469Z,20.70
2022-08-08T18:19:29.008Z,20.60
2022-08-08T18:21:03.192Z,20.60
2022-08-08T18:22:51.145Z,20.50
2022-08-08T18:24:26.712Z,20.50
2022-08-08T18:26:04.087Z,20.40
2022-08-08T18:27:38.265Z,20.30
2022-08-08T18:29:15.626Z,20.30
2022-08-08T18:30:47.858Z,20.30
2022-08-08T18:32:20.767Z,20.30
2022-08-08T18:34:11.431Z,20.30
2022-08-08T18:35:48.785Z,20.20
2022-08-08T18:37:47.794Z,20.20
2022-08-08T18:39:16.458Z,20.10
2022-08-08T18:41:00.866Z,20.10
2022-08-08T18:42:36.423Z,20.00
2022-08-08T18:44:12.862Z,20.00
2022-08-08T18:46:52.891Z,20.00
2022-08-08T18:47:37.843Z,19.90
2022-08-08T18:49:11.208Z,19.90
2022-08-08T18:50:50.163Z,19.90
2022-08-08T18:52:34.660Z,19.90
2022-08-08T18:54:13.645Z,19.80
2022-08-08T18:55:55.250Z,19.80
2022-08-08T18:57:28.613Z,19.70
2022-08-08T18:59:04.192Z,19.70
2022-08-08T19:00:38.997Z,19.70
2022-08-08T19:02:25.084Z,19.70
2022-08-08T19:04:10.349Z,19.60
2022-08-08T19:05:45.366Z,19.60
2022-08-08T19:07:23.128Z,19.50
2022-08-08T19:08:55.367Z,19.50
2022-08-08T19:10:29.566Z,19.50
2022-08-08T19:12:02.337Z,19.50
2022-08-08T19:13:53.447Z,19.40
2022-08-08T19:15:34.152Z,19.40
2022-08-08T19:17:06.952Z,19.40
2022-08-08T19:18:51.468Z,19.40
2022-08-08T19:20:29.807Z,19.40
2022-08-08T19:22:04.696Z,19.30
2022-08-08T19:23:37.155Z,19.30
2022-08-08T19:25:59.981Z,19.30
2022-08-08T19:27:05.841Z,19.30
2022-08-08T19:28:39.218Z,19.20
2022-08-08T19:30:18.275Z,19.20
2022-08-08T19:31:56.788Z,19.30
2022-08-08T19:33:52.235Z,19.20
2022-08-08T19:35:25.693Z,19.20
2022-08-08T19:37:16.642Z,19.20
2022-08-08T19:38:50.779Z,19.20
2022-08-08T19:40:31.034Z,19.10
2022-08-08T19:42:06.776Z,19.10
2022-08-08T19:44:02.335Z,19.00
2022-08-08T19:45:59.032Z,19.00
2022-08-08T19:47:25.410Z,19.00
2022-08-08T19:49:11.151Z,19.00
2022-08-08T19:50:43.655Z,18.90
2022-08-08T19:52:34.354Z,18.90
2022-08-08T19:54:07.848Z,18.90
2022-08-08T19:55:40.121Z,18.90
2022-08-08T19:57:17.104Z,18.90
2022-08-08T19:58:51.530Z,18.90
2022-08-08T20:00:29.894Z,18.90
2022-08-08T20:02:05.124Z,18.90
2022-08-08T20:04:01.736Z,18.90
2022-08-08T20:06:14.293Z,18.90
2022-08-08T20:08:30.135Z,18.80
2022-08-08T20:09:17.231Z,18.80
2022-08-08T20:10:54.679Z,18.80
2022-08-08T20:12:32.840Z,18.70
2022-08-08T20:14:33.406Z,18.70
2022-08-08T20:16:01.169Z,18.70
2022-08-08T20:17:33.584Z,18.70
2022-08-08T20:19:06.335Z,18.60
2022-08-08T20:20:38.640Z,18.60
2022-08-08T20:22:26.439Z,18.60
2022-08-08T20:24:03.259Z,18.50
2022-08-08T20:25:37.721Z,18.50
2022-08-08T20:27:11.463Z,18.50
2022-08-08T20:28:53.571Z,18.50
2022-08-08T20:30:53.392Z,18.50
2022-08-08T20:32:21.740Z,18.50
2022-08-08T20:34:27.130Z,18.50
2022-08-08T20:35:59.505Z,18.50
2022-08-08T20:37:53.429Z,18.40
2022-08-08T20:39:38.957Z,18.40
2022-08-08T20:41:17.498Z,18.30
2022-08-08T20:42:54.688Z,18.30
2022-08-08T20:44:27.543Z,18.30
2022-08-08T20:46:03.347Z,18.20
2022-08-08T20:47:39.223Z,18.20
2022-08-08T20:49:11.672Z,18.20
2022-08-08T20:50:45.401Z,18.10
2022-08-08T20:52:17.559Z,18.10
2022-08-08T20:53:59.390Z,18.00
2022-08-08T20:55:35.815Z,18.00
2022-08-08T20:57:17.008Z,18.00
2022-08-08T20:58:51.624Z,18.00
2022-08-08T21:00:24.560Z,17.90
2022-08-08T21:02:07.107Z,17.90
2022-08-08T21:03:56.053Z,17.90
2022-08-08T21:05:33.713Z,17.80
2022-08-08T21:07:47.840Z,17.70
2022-08-08T21:09:21.642Z,17.70
2022-08-08T21:10:54.196Z,17.60
2022-08-08T21:12:33.177Z,17.60
2022-08-08T21:14:06.739Z,17.50
2022-08-08T21:16:04.679Z,17.50
2022-08-08T21:17:33.243Z,17.50
2022-08-08T21:19:05.486Z,17.40
2022-08-08T21:20:43.580Z,17.40
2022-08-08T21:22:23.166Z,17.30
2022-08-08T21:24:03.878Z,17.30
2022-08-08T21:25:39.476Z,17.30
2022-08-08T21:27:15.264Z,17.20
2022-08-08T21:29:03.989Z,17.20
2022-08-08T21:30:39.419Z,17.10
2022-08-08T21:32:25.097Z,17.10
2022-08-08T21:33:58.036Z,17.10
2022-08-08T21:36:14.381Z,17.20
2022-08-08T21:37:55.472Z,17.20
2022-08-08T21:39:21.969Z,17.20
2022-08-08T21:40:54.725Z,17.10
2022-08-08T21:42:27.856Z,17.10
2022-08-08T21:43:59.993Z,17.10
2022-08-08T21:48:01.895Z,17.20
2022-08-08T21:48:13.008Z,17.10
2022-08-08T21:49:16.869Z,17.10
2022-08-08T21:50:49.490Z,17.10
2022-08-08T21:54:31.285Z,17.20
2022-08-08T21:54:50.534Z,17.20
2022-08-08T21:56:30.380Z,17.20
2022-08-08T21:58:05.794Z,17.20
2022-08-08T22:00:02.600Z,17.20
2022-08-08T22:01:40.593Z,17.20
2022-08-08T22:03:17.781Z,17.20
2022-08-08T22:04:52.141Z,17.20
2022-08-08T22:06:31.101Z,17.10
2022-08-08T22:08:04.795Z,17.10
2022-08-08T22:09:43.568Z,17.00
2022-08-08T22:11:48.206Z,17.00
2022-08-08T22:13:18.298Z,16.90
2022-08-08T22:14:52.937Z,16.90
2022-08-08T22:16:25.195Z,16.80
2022-08-08T22:17:58.018Z,16.80
2022-08-08T22:20:11.317Z,16.80
2022-08-08T22:21:23.035Z,16.80
2022-08-08T22:23:07.833Z,16.80
2022-08-08T22:24:40.275Z,16.70
2022-08-08T22:26:27.261Z,16.80
2022-08-08T22:28:03.790Z,16.80
2022-08-08T22:29:59.101Z,16.70
2022-08-08T22:31:35.467Z,16.70
2022-08-08T22:34:10.758Z,16.70
2022-08-08T22:35:03.821Z,16.80
2022-08-08T22:36:36.414Z,16.70
2022-08-08T22:38:08.578Z,16.70
2022-08-08T22:40:00.524Z,16.60
2022-08-08T22:41:34.008Z,16.60
2022-08-08T22:43:07.808Z,16.60